createdAt,value
2019-05-06T00:02:04.427Z,8.94
2019-05-06T00:05:08.346Z,8.88
2019-05-06T00:08:14.344Z,8.83
2019-05-06T00:11:18.435Z,8.78
2019-05-06T00:14:23.526Z,8.76
2019-05-06T00:17:27.784Z,8.73
2019-05-06T00:20:31.784Z,8.69
2019-05-06T00:23:40.561Z,8.63
2019-05-06T00:26:57.621Z,8.56
2019-05-06T00:30:04.479Z,8.45
2019-05-06T00:33:08.564Z,8.42
2019-05-06T00:36:14.180Z,8.37
2019-05-06T00:39:33.976Z,8.31
2019-05-06T00:42:41.987Z,8.19
2019-05-06T00:45:45.836Z,8.14
2019-05-06T00:48:50.070Z,8.07
2019-05-06T00:51:55.026Z,7.99
2019-05-06T00:54:59.061Z,7.97
2019-05-06T00:58:04.103Z,7.98
2019-05-06T01:01:08.698Z,8.00
2019-05-06T01:04:13.920Z,8.02
2019-05-06T01:07:18.062Z,8.03
2019-05-06T01:10:23.825Z,8.02
2019-05-06T01:13:49.917Z,8.03
2019-05-06T01:16:54.737Z,8.03
2019-05-06T01:19:59.171Z,7.98
2019-05-06T01:23:03.838Z,7.96
2019-05-06T01:26:07.922Z,7.96
2019-05-06T01:29:14.562Z,7.97
2019-05-06T01:32:19.215Z,7.98
2019-05-06T01:35:24.506Z,7.97
2019-05-06T01:38:34.063Z,8.02
2019-05-06T01:42:04.455Z,8.03
2019-05-06T01:45:09.563Z,8.03
2019-05-06T01:48:14.351Z,8.02
2019-05-06T01:51:24.178Z,8.00
2019-05-06T01:54:27.771Z,7.97
2019-05-06T01:57:33.694Z,7.98
2019-05-06T02:00:39.521Z,8.00
2019-05-06T02:03:44.246Z,8.01
2019-05-06T02:06:48.461Z,8.02
2019-05-06T02:09:54.194Z,7.99
2019-05-06T02:12:58.344Z,7.94
2019-05-06T02:16:03.973Z,7.91
2019-05-06T02:19:08.157Z,7.89
2019-05-06T02:22:23.585Z,7.85
2019-05-06T02:25:34.240Z,7.82
2019-05-06T02:28:40.049Z,7.79
2019-05-06T02:32:16.171Z,7.79
2019-05-06T02:35:14.883Z,7.81
2019-05-06T02:38:39.140Z,7.80
2019-05-06T02:41:37.209Z,7.84
2019-05-06T02:44:44.245Z,7.80
2019-05-06T02:48:05.559Z,7.76
2019-05-06T02:51:13.370Z,7.73
2019-05-06T02:54:17.880Z,7.70
2019-05-06T02:57:23.857Z,7.71
2019-05-06T03:00:27.771Z,7.71
2019-05-06T03:03:33.787Z,7.69
2019-05-06T03:06:38.449Z,7.68
2019-05-06T03:09:44.544Z,7.71
2019-05-06T03:12:48.229Z,7.76
2019-05-06T03:15:54.123Z,7.77
2019-05-06T03:18:58.710Z,7.84
2019-05-06T03:22:24.059Z,7.85
2019-05-06T03:25:29.557Z,7.82
2019-05-06T03:28:34.569Z,7.80
2019-05-06T03:31:38.954Z,7.73
2019-05-06T03:35:01.224Z,7.63
2019-05-06T03:37:49.531Z,7.60
2019-05-06T03:40:54.160Z,7.56
2019-05-06T03:43:58.887Z,7.49
2019-05-06T03:47:34.964Z,7.40
2019-05-06T03:50:38.965Z,7.34
2019-05-06T03:53:44.251Z,7.31
2019-05-06T03:56:50.273Z,7.24
2019-05-06T03:59:55.435Z,7.16
2019-05-06T04:03:02.882Z,7.10
2019-05-06T04:06:05.787Z,7.06
2019-05-06T04:09:13.004Z,7.11
2019-05-06T04:12:16.993Z,7.12
2019-05-06T04:15:22.970Z,7.15
2019-05-06T04:18:29.385Z,7.19
2019-05-06T04:21:44.514Z,7.23
2019-05-06T04:24:59.077Z,7.28
2019-05-06T04:28:12.915Z,7.30
2019-05-06T04:31:17.247Z,7.31
2019-05-06T04:34:23.386Z,7.36
2019-05-06T04:37:27.850Z,7.42
2019-05-06T04:40:33.119Z,7.46
2019-05-06T04:43:37.704Z,7.53
2019-05-06T04:46:44.363Z,7.60
2019-05-06T04:49:48.054Z,7.70
2019-05-06T04:53:04.837Z,7.79
2019-05-06T04:56:08.494Z,7.83
2019-05-06T04:59:13.982Z,7.91
2019-05-06T05:02:18.947Z,8.02
2019-05-06T05:05:23.209Z,8.15
2019-05-06T05:08:39.235Z,8.34
2019-05-06T05:11:56.528Z,8.49
2019-05-06T05:15:19.789Z,8.62
2019-05-06T05:18:32.013Z,8.69
2019-05-06T05:21:36.771Z,8.77
2019-05-06T05:24:42.542Z,8.80
2019-05-06T05:27:46.915Z,8.92
2019-05-06T05:30:52.224Z,9.07
2019-05-06T05:33:57.482Z,9.18
2019-05-06T05:37:03.066Z,9.28
2019-05-06T05:40:07.359Z,9.42
2019-05-06T05:43:39.415Z,9.62
2019-05-06T05:46:43.873Z,9.64
2019-05-06T05:50:08.244Z,9.83
2019-05-06T05:53:12.532Z,10.04
2019-05-06T05:56:16.516Z,10.31
2019-05-06T05:59:23.244Z,10.46
2019-05-06T06:02:26.989Z,10.46
2019-05-06T06:05:32.997Z,10.89
2019-05-06T06:08:37.397Z,10.85
2019-05-06T06:11:48.424Z,10.79
2019-05-06T06:15:14.263Z,10.67
2019-05-06T06:18:27.944Z,10.56
2019-05-06T06:21:48.203Z,10.52
2019-05-06T06:24:52.629Z,10.52
2019-05-06T06:27:57.475Z,10.42
2019-05-06T06:31:17.517Z,10.40
2019-05-06T06:34:27.313Z,10.58
2019-05-06T06:38:02.877Z,11.21
2019-05-06T06:41:06.879Z,12.62
2019-05-06T06:44:14.538Z,13.74
2019-05-06T06:47:18.927Z,14.40
2019-05-06T06:50:24.023Z,14.72
2019-05-06T06:53:28.428Z,15.36
2019-05-06T06:57:03.215Z,15.67
2019-05-06T07:00:06.145Z,15.81
2019-05-06T07:03:12.966Z,16.27
2019-05-06T07:06:27.514Z,16.17
2019-05-06T07:09:32.341Z,15.83
2019-05-06T07:12:36.885Z,16.21
2019-05-06T07:15:42.661Z,15.95
2019-05-06T07:18:46.636Z,16.29
2019-05-06T07:21:56.177Z,16.74
2019-05-06T07:25:03.562Z,16.64
2019-05-06T07:28:06.174Z,16.50
2019-05-06T07:31:20.701Z,16.31
2019-05-06T07:34:15.831Z,16.30
2019-05-06T07:37:21.959Z,16.38
2019-05-06T07:40:25.952Z,16.57
2019-05-06T07:43:46.907Z,16.61
2019-05-06T07:46:57.392Z,16.64
2019-05-06T07:50:02.568Z,16.67
2019-05-06T07:53:06.950Z,15.79
2019-05-06T07:56:12.648Z,14.53
2019-05-06T07:59:16.959Z,14.78
2019-05-06T08:02:22.850Z,16.15
2019-05-06T08:05:27.468Z,16.65
2019-05-06T08:08:33.429Z,15.70
2019-05-06T08:11:37.700Z,14.65
2019-05-06T08:14:43.434Z,13.73
2019-05-06T08:17:47.916Z,13.14
2019-05-06T08:20:52.203Z,12.88
2019-05-06T08:23:56.535Z,12.59
2019-05-06T08:27:02.895Z,12.50
2019-05-06T08:30:07.208Z,12.62
2019-05-06T08:33:12.904Z,12.76
2019-05-06T08:36:23.832Z,12.66
2019-05-06T08:39:27.934Z,12.31
2019-05-06T08:42:32.914Z,12.13
2019-05-06T08:45:37.431Z,12.09
2019-05-06T08:48:42.826Z,12.24
2019-05-06T08:51:57.113Z,12.56
2019-05-06T08:55:02.928Z,12.84
2019-05-06T08:58:07.985Z,13.16
2019-05-06T09:01:15.051Z,13.34
2019-05-06T09:04:19.157Z,13.68
2019-05-06T09:07:23.869Z,13.91
2019-05-06T09:10:28.296Z,14.16
2019-05-06T09:13:32.704Z,14.17
2019-05-06T09:16:37.175Z,14.04
2019-05-06T09:19:42.655Z,14.10
2019-05-06T09:22:47.043Z,13.99
2019-05-06T09:25:53.069Z,13.95
2019-05-06T09:29:03.824Z,13.73
2019-05-06T09:32:13.977Z,13.98
2019-05-06T09:35:18.286Z,14.50
2019-05-06T09:38:22.901Z,14.85
2019-05-06T09:41:27.132Z,15.19
2019-05-06T09:44:33.000Z,15.03
2019-05-06T09:47:56.484Z,14.78
2019-05-06T09:51:02.893Z,14.01
2019-05-06T09:54:32.445Z,14.40
2019-05-06T09:57:55.819Z,14.77
2019-05-06T10:01:02.721Z,15.11
2019-05-06T10:04:09.771Z,14.79
2019-05-06T10:07:14.119Z,14.64
2019-05-06T10:10:18.046Z,14.64
2019-05-06T10:13:22.089Z,15.14
2019-05-06T10:16:26.539Z,15.15
2019-05-06T10:19:32.093Z,14.95
2019-05-06T10:22:36.293Z,14.94
2019-05-06T10:25:43.365Z,14.92
2019-05-06T10:29:22.272Z,14.71
2019-05-06T10:32:42.629Z,14.67
2019-05-06T10:35:46.777Z,14.82
2019-05-06T10:38:58.062Z,15.10
2019-05-06T10:42:13.989Z,15.01
2019-05-06T10:45:28.401Z,14.99
2019-05-06T10:48:32.593Z,14.68
2019-05-06T10:51:47.991Z,15.20
2019-05-06T10:54:52.252Z,14.99
2019-05-06T10:57:56.642Z,14.68
2019-05-06T11:01:25.814Z,14.49
2019-05-06T11:04:29.836Z,14.69
2019-05-06T11:07:35.406Z,15.07
2019-05-06T11:10:44.138Z,15.10
2019-05-06T11:13:46.237Z,15.11
2019-05-06T11:16:50.115Z,15.39
2019-05-06T11:19:53.967Z,15.78
2019-05-06T11:22:58.557Z,16.17
2019-05-06T11:26:03.135Z,16.33
2019-05-06T11:29:18.985Z,16.26
2019-05-06T11:32:54.814Z,16.20
2019-05-06T11:36:01.974Z,16.19
2019-05-06T11:39:07.090Z,16.43
2019-05-06T11:42:24.939Z,16.39
2019-05-06T11:45:17.014Z,16.59
2019-05-06T11:48:22.286Z,16.46
2019-05-06T11:51:28.083Z,16.58
2019-05-06T11:54:33.739Z,16.35
2019-05-06T11:57:41.677Z,16.45
2019-05-06T12:00:45.672Z,16.52
2019-05-06T12:03:49.549Z,16.24
2019-05-06T12:07:09.987Z,16.32
2019-05-06T12:09:59.150Z,16.21
2019-05-06T12:13:03.155Z,16.20
2019-05-06T12:16:07.529Z,16.32
2019-05-06T12:19:13.134Z,16.43
2019-05-06T12:22:17.507Z,16.39
2019-05-06T12:25:23.435Z,16.62
2019-05-06T12:28:28.008Z,16.71
2019-05-06T12:31:32.853Z,16.33
2019-05-06T12:34:37.357Z,15.98
2019-05-06T12:37:44.059Z,15.63
2019-05-06T12:40:48.603Z,15.17
2019-05-06T12:43:53.125Z,15.19
2019-05-06T12:47:04.775Z,14.97
2019-05-06T12:50:08.844Z,14.63
2019-05-06T12:53:13.355Z,14.18
2019-05-06T12:56:17.752Z,13.97
2019-05-06T12:59:22.312Z,13.76
2019-05-06T13:02:26.607Z,13.83
2019-05-06T13:05:31.936Z,14.07
2019-05-06T13:08:54.092Z,14.01
2019-05-06T13:11:43.172Z,14.19
2019-05-06T13:14:47.298Z,14.46
2019-05-06T13:17:53.160Z,14.76
2019-05-06T13:20:57.993Z,15.23
2019-05-06T13:24:05.556Z,16.06
2019-05-06T13:27:12.573Z,16.41
2019-05-06T13:30:17.698Z,16.41
2019-05-06T13:33:30.446Z,16.33
2019-05-06T13:36:35.783Z,15.83
2019-05-06T13:39:40.359Z,15.63
2019-05-06T13:43:03.783Z,15.63
2019-05-06T13:46:15.160Z,15.74
2019-05-06T13:49:37.634Z,15.64
2019-05-06T13:52:43.490Z,15.78
2019-05-06T13:55:47.381Z,15.93
2019-05-06T13:58:52.675Z,15.78
2019-05-06T14:02:16.296Z,15.74
2019-05-06T14:05:21.292Z,15.65
2019-05-06T14:08:25.547Z,15.70
2019-05-06T14:11:29.742Z,15.80
2019-05-06T14:14:33.923Z,15.77
2019-05-06T14:17:37.938Z,15.80
2019-05-06T14:20:42.918Z,15.67
2019-05-06T14:23:47.266Z,15.56
2019-05-06T14:27:02.521Z,15.42
2019-05-06T14:30:13.854Z,15.37
2019-05-06T14:33:19.736Z,15.37
2019-05-06T14:36:27.426Z,15.75
2019-05-06T14:39:49.072Z,15.80
2019-05-06T14:42:38.514Z,15.48
2019-05-06T14:45:42.419Z,15.17
2019-05-06T14:48:47.926Z,15.06
2019-05-06T14:51:53.694Z,14.79
2019-05-06T14:55:07.854Z,14.61
2019-05-06T14:58:12.141Z,14.45
2019-05-06T15:01:16.310Z,14.34
2019-05-06T15:04:22.813Z,14.35
2019-05-06T15:07:26.327Z,14.60
2019-05-06T15:10:32.143Z,14.71
2019-05-06T15:13:36.686Z,14.95
2019-05-06T15:16:42.233Z,14.94
2019-05-06T15:19:46.752Z,14.88
2019-05-06T15:22:52.984Z,14.76
2019-05-06T15:25:57.307Z,14.82
2019-05-06T15:29:03.360Z,14.60
2019-05-06T15:32:24.169Z,14.65
2019-05-06T15:35:47.173Z,14.74
2019-05-06T15:38:52.760Z,14.65
2019-05-06T15:41:56.934Z,14.63
2019-05-06T15:45:01.678Z,14.40
2019-05-06T15:48:05.588Z,14.31
2019-05-06T15:51:12.085Z,14.02
2019-05-06T15:54:15.220Z,13.84
2019-05-06T15:57:19.654Z,13.78
2019-05-06T16:00:23.750Z,13.69
2019-05-06T16:03:28.112Z,13.57
2019-05-06T16:06:33.137Z,13.50
2019-05-06T16:09:37.235Z,13.57
2019-05-06T16:12:44.026Z,13.54
2019-05-06T16:15:48.245Z,13.46
2019-05-06T16:18:52.094Z,13.29
2019-05-06T16:21:56.214Z,13.34
2019-05-06T16:25:07.884Z,13.28
2019-05-06T16:28:13.006Z,13.27
2019-05-06T16:31:17.284Z,13.24
2019-05-06T16:34:22.805Z,13.11
2019-05-06T16:37:27.057Z,13.16
2019-05-06T16:40:33.508Z,13.18
2019-05-06T16:43:37.222Z,13.12
2019-05-06T16:46:42.701Z,13.18
2019-05-06T16:49:46.741Z,13.30
2019-05-06T16:52:52.572Z,13.36
2019-05-06T16:56:02.377Z,13.37
2019-05-06T16:59:06.314Z,13.31
2019-05-06T17:02:22.853Z,13.38
2019-05-06T17:05:45.001Z,13.47
2019-05-06T17:08:49.418Z,13.48
2019-05-06T17:11:53.923Z,13.47
2019-05-06T17:14:57.847Z,13.46
2019-05-06T17:18:03.046Z,13.44
2019-05-06T17:21:07.376Z,13.49
2019-05-06T17:24:13.066Z,13.43
2019-05-06T17:27:17.192Z,13.46
2019-05-06T17:30:42.773Z,13.42
2019-05-06T17:33:47.517Z,13.28
2019-05-06T17:36:53.814Z,13.19
2019-05-06T17:40:07.874Z,13.19
2019-05-06T17:43:04.416Z,13.23
2019-05-06T17:46:08.773Z,13.23
2019-05-06T17:49:16.439Z,13.19
2019-05-06T17:52:22.421Z,13.16
2019-05-06T17:55:26.398Z,12.95
2019-05-06T17:58:30.325Z,12.78
2019-05-06T18:01:44.070Z,12.61
2019-05-06T18:04:48.220Z,12.46
2019-05-06T18:07:52.056Z,12.26
2019-05-06T18:10:56.464Z,12.10
2019-05-06T18:14:00.492Z,11.97
2019-05-06T18:17:04.882Z,11.88
2019-05-06T18:20:09.939Z,11.81
2019-05-06T18:23:13.803Z,11.80
2019-05-06T18:26:18.047Z,11.78
2019-05-06T18:29:22.443Z,11.79
2019-05-06T18:32:27.054Z,11.79
2019-05-06T18:35:31.178Z,11.74
2019-05-06T18:38:35.184Z,11.67
2019-05-06T18:41:39.288Z,11.56
2019-05-06T18:44:43.534Z,11.52
2019-05-06T18:47:47.448Z,11.46
2019-05-06T18:50:52.023Z,11.44
2019-05-06T18:53:56.287Z,11.46
2019-05-06T18:57:04.616Z,11.45
2019-05-06T19:00:07.115Z,11.44
2019-05-06T19:03:12.133Z,11.45
2019-05-06T19:06:16.102Z,11.43
2019-05-06T19:09:39.021Z,11.43
2019-05-06T19:12:43.014Z,11.41
2019-05-06T19:15:47.441Z,11.37
2019-05-06T19:18:52.185Z,11.28
2019-05-06T19:21:56.662Z,11.24
2019-05-06T19:25:02.632Z,11.18
2019-05-06T19:28:06.691Z,11.06
2019-05-06T19:31:12.315Z,11.02
2019-05-06T19:34:16.701Z,10.95
2019-05-06T19:37:23.085Z,10.87
2019-05-06T19:40:26.601Z,10.84
2019-05-06T19:43:32.874Z,10.79
2019-05-06T19:46:37.343Z,10.75
2019-05-06T19:49:42.437Z,10.71
2019-05-06T19:52:46.440Z,10.66
2019-05-06T19:55:50.372Z,10.65
2019-05-06T19:58:54.332Z,10.59
2019-05-06T20:01:58.664Z,10.50
2019-05-06T20:05:07.346Z,10.43
2019-05-06T20:08:24.782Z,10.31
2019-05-06T20:11:33.208Z,10.16
2019-05-06T20:14:37.053Z,10.02
2019-05-06T20:17:42.486Z,9.92
2019-05-06T20:20:46.785Z,9.83
2019-05-06T20:23:52.653Z,9.75
2019-05-06T20:26:57.025Z,9.61
2019-05-06T20:30:03.251Z,9.47
2019-05-06T20:33:06.635Z,9.44
2019-05-06T20:36:12.582Z,9.30
2019-05-06T20:39:16.921Z,9.18
2019-05-06T20:42:22.253Z,9.07
2019-05-06T20:45:26.414Z,9.03
2019-05-06T20:48:32.517Z,8.96
2019-05-06T20:51:36.856Z,8.89
2019-05-06T20:54:42.672Z,8.81
2019-05-06T20:57:46.742Z,8.74
2019-05-06T21:00:52.133Z,8.64
2019-05-06T21:03:56.376Z,8.51
2019-05-06T21:07:00.236Z,8.43
2019-05-06T21:10:05.080Z,8.33
2019-05-06T21:13:08.999Z,8.22
2019-05-06T21:16:13.214Z,8.09
2019-05-06T21:19:17.771Z,7.97
2019-05-06T21:22:22.285Z,7.88
2019-05-06T21:25:26.291Z,7.80
2019-05-06T21:28:30.563Z,7.74
2019-05-06T21:31:35.324Z,7.70
2019-05-06T21:34:40.276Z,7.62
2019-05-06T21:37:44.469Z,7.54
2019-05-06T21:40:48.905Z,7.48
2019-05-06T21:43:52.832Z,7.39
2019-05-06T21:46:56.819Z,7.35
2019-05-06T21:50:00.742Z,7.30
2019-05-06T21:53:04.705Z,7.25
2019-05-06T21:56:09.184Z,7.16
2019-05-06T21:59:13.426Z,7.09
2019-05-06T22:02:20.128Z,7.07
2019-05-06T22:05:24.305Z,7.06
2019-05-06T22:08:28.521Z,7.03
2019-05-06T22:11:33.150Z,6.99
2019-05-06T22:14:37.392Z,6.94
2019-05-06T22:17:42.917Z,6.89
2019-05-06T22:21:04.949Z,6.88
2019-05-06T22:24:08.907Z,6.88
2019-05-06T22:27:13.711Z,6.84
2019-05-06T22:30:18.746Z,6.79
2019-05-06T22:33:22.580Z,6.75
2019-05-06T22:36:26.800Z,6.71
2019-05-06T22:39:31.684Z,6.63
2019-05-06T22:42:36.867Z,6.56
2019-05-06T22:45:42.544Z,6.48
2019-05-06T22:48:46.507Z,6.44
2019-05-06T22:51:52.144Z,6.34
2019-05-06T22:54:55.922Z,6.28
2019-05-06T22:58:02.410Z,6.28
2019-05-06T23:01:12.446Z,6.29
2019-05-06T23:04:17.460Z,6.25
2019-05-06T23:07:22.531Z,6.19
2019-05-06T23:10:26.802Z,6.12
2019-05-06T23:13:30.822Z,6.03
2019-05-06T23:16:35.180Z,5.96
2019-05-06T23:19:39.169Z,5.87
2019-05-06T23:22:43.308Z,5.84
2019-05-06T23:26:06.302Z,5.82
2019-05-06T23:29:10.152Z,5.84
2019-05-06T23:32:14.154Z,5.80
2019-05-06T23:35:18.303Z,5.76
2019-05-06T23:38:58.474Z,5.67
2019-05-06T23:42:38.438Z,5.58
2019-05-06T23:46:18.636Z,5.58
2019-05-06T23:49:59.096Z,5.54
2019-05-06T23:53:38.838Z,5.43
2019-05-06T23:56:44.762Z,5.33
2019-05-06T23:59:48.868Z,5.25
